sensor_id;sensor_type;location;lat;lon;timestamp;pressure;altitude;pressure_sealevel;temperature
21210;BMP180;10762;42.206;25.326;2023-12-28T00:00:40;100602.00;;;9.60
21210;BMP180;10762;42.206;25.326;2023-12-28T00:03:06;100601.00;;;9.60
21210;BMP180;10762;42.206;25.326;2023-12-28T00:05:32;100602.00;;;9.60
21210;BMP180;10762;42.206;25.326;2023-12-28T00:07:58;100608.00;;;9.50
21210;BMP180;10762;42.206;25.326;2023-12-28T00:10:25;100609.00;;;9.50
21210;BMP180;10762;42.206;25.326;2023-12-28T00:12:51;100610.00;;;9.40
21210;BMP180;10762;42.206;25.326;2023-12-28T00:15:17;100624.00;;;9.30
21210;BMP180;10762;42.206;25.326;2023-12-28T00:17:43;100627.00;;;9.30
21210;BMP180;10762;42.206;25.326;2023-12-28T00:20:09;100636.00;;;9.30
21210;BMP180;10762;42.206;25.326;2023-12-28T00:22:36;100640.00;;;9.20
21210;BMP180;10762;42.206;25.326;2023-12-28T00:25:05;100648.00;;;9.20
21210;BMP180;10762;42.206;25.326;2023-12-28T00:27:31;100644.00;;;9.20
21210;BMP180;10762;42.206;25.326;2023-12-28T00:29:59;100641.00;;;9.20
21210;BMP180;10762;42.206;25.326;2023-12-28T00:32:26;100638.00;;;9.20
21210;BMP180;10762;42.206;25.326;2023-12-28T00:34:52;100655.00;;;9.20
21210;BMP180;10762;42.206;25.326;2023-12-28T00:37:18;100656.00;;;9.20
21210;BMP180;10762;42.206;25.326;2023-12-28T00:39:44;100659.00;;;9.20
21210;BMP180;10762;42.206;25.326;2023-12-28T00:42:12;100655.00;;;9.10
21210;BMP180;10762;42.206;25.326;2023-12-28T00:44:38;100662.00;;;9.20
21210;BMP180;10762;42.206;25.326;2023-12-28T00:47:04;100658.00;;;9.10
21210;BMP180;10762;42.206;25.326;2023-12-28T00:49:32;100658.00;;;9.10
21210;BMP180;10762;42.206;25.326;2023-12-28T00:51:58;100659.00;;;9.10
21210;BMP180;10762;42.206;25.326;2023-12-28T00:54:24;100667.00;;;9.10
21210;BMP180;10762;42.206;25.326;2023-12-28T00:56:50;100671.00;;;9.00
21210;BMP180;10762;42.206;25.326;2023-12-28T00:59:17;100672.00;;;9.00
21210;BMP180;10762;42.206;25.326;2023-12-28T01:01:43;100658.00;;;9.00
21210;BMP180;10762;42.206;25.326;2023-12-28T01:04:09;100661.00;;;9.00
21210;BMP180;10762;42.206;25.326;2023-12-28T01:06:35;100672.00;;;9.00
21210;BMP180;10762;42.206;25.326;2023-12-28T01:09:01;100670.00;;;8.90
21210;BMP180;10762;42.206;25.326;2023-12-28T01:11:27;100678.00;;;8.90
21210;BMP180;10762;42.206;25.326;2023-12-28T01:13:53;100674.00;;;8.90
21210;BMP180;10762;42.206;25.326;2023-12-28T01:16:19;100664.00;;;8.90
21210;BMP180;10762;42.206;25.326;2023-12-28T01:18:46;100666.00;;;8.80
21210;BMP180;10762;42.206;25.326;2023-12-28T01:21:12;100655.00;;;8.80
21210;BMP180;10762;42.206;25.326;2023-12-28T01:23:38;100660.00;;;8.70
21210;BMP180;10762;42.206;25.326;2023-12-28T01:26:04;100671.00;;;8.70
21210;BMP180;10762;42.206;25.326;2023-12-28T01:28:31;100667.00;;;8.70
21210;BMP180;10762;42.206;25.326;2023-12-28T01:30:57;100676.00;;;8.70
21210;BMP180;10762;42.206;25.326;2023-12-28T01:33:23;100678.00;;;8.70
21210;BMP180;10762;42.206;25.326;2023-12-28T01:35:49;100676.00;;;8.60
21210;BMP180;10762;42.206;25.326;2023-12-28T01:38:15;100672.00;;;8.60
21210;BMP180;10762;42.206;25.326;2023-12-28T01:40:45;100676.00;;;8.50
21210;BMP180;10762;42.206;25.326;2023-12-28T01:43:11;100672.00;;;8.50
21210;BMP180;10762;42.206;25.326;2023-12-28T01:45:37;100659.00;;;8.50
21210;BMP180;10762;42.206;25.326;2023-12-28T01:48:03;100666.00;;;8.50
21210;BMP180;10762;42.206;25.326;2023-12-28T01:50:30;100678.00;;;8.50
21210;BMP180;10762;42.206;25.326;2023-12-28T01:52:58;100671.00;;;8.40
21210;BMP180;10762;42.206;25.326;2023-12-28T01:55:24;100663.00;;;8.40
21210;BMP180;10762;42.206;25.326;2023-12-28T01:57:52;100664.00;;;8.40
21210;BMP180;10762;42.206;25.326;2023-12-28T02:00:18;100672.00;;;8.40
21210;BMP180;10762;42.206;25.326;2023-12-28T02:02:45;100672.00;;;8.30
21210;BMP180;10762;42.206;25.326;2023-12-28T02:05:11;100681.00;;;8.30
21210;BMP180;10762;42.206;25.326;2023-12-28T02:07:38;100678.00;;;8.30
21210;BMP180;10762;42.206;25.326;2023-12-28T02:10:04;100679.00;;;8.20
21210;BMP180;10762;42.206;25.326;2023-12-28T02:12:31;100681.00;;;8.20
21210;BMP180;10762;42.206;25.326;2023-12-28T02:14:57;100687.00;;;8.20
21210;BMP180;10762;42.206;25.326;2023-12-28T02:17:33;100681.00;;;8.20
21210;BMP180;10762;42.206;25.326;2023-12-28T02:20:02;100686.00;;;8.20
21210;BMP180;10762;42.206;25.326;2023-12-28T02:22:32;100684.00;;;8.30
21210;BMP180;10762;42.206;25.326;2023-12-28T02:25:05;100681.00;;;8.30
21210;BMP180;10762;42.206;25.326;2023-12-28T02:27:39;100680.00;;;8.40
21210;BMP180;10762;42.206;25.326;2023-12-28T02:30:06;100685.00;;;8.60
21210;BMP180;10762;42.206;25.326;2023-12-28T02:32:35;100679.00;;;8.70
21210;BMP180;10762;42.206;25.326;2023-12-28T02:35:11;100683.00;;;8.70
21210;BMP180;10762;42.206;25.326;2023-12-28T02:37:39;100685.00;;;8.60
21210;BMP180;10762;42.206;25.326;2023-12-28T02:40:06;100676.00;;;8.60
21210;BMP180;10762;42.206;25.326;2023-12-28T02:42:33;100681.00;;;8.50
21210;BMP180;10762;42.206;25.326;2023-12-28T02:44:59;100682.00;;;8.60
21210;BMP180;10762;42.206;25.326;2023-12-28T02:47:25;100692.00;;;8.60
21210;BMP180;10762;42.206;25.326;2023-12-28T02:49:52;100693.00;;;8.60
21210;BMP180;10762;42.206;25.326;2023-12-28T02:52:18;100687.00;;;8.50
21210;BMP180;10762;42.206;25.326;2023-12-28T02:54:44;100690.00;;;8.50
21210;BMP180;10762;42.206;25.326;2023-12-28T02:57:10;100687.00;;;8.40
21210;BMP180;10762;42.206;25.326;2023-12-28T02:59:36;100687.00;;;8.40
21210;BMP180;10762;42.206;25.326;2023-12-28T03:02:04;100686.00;;;8.40
21210;BMP180;10762;42.206;25.326;2023-12-28T03:04:30;100689.00;;;8.50
21210;BMP180;10762;42.206;25.326;2023-12-28T03:06:57;100686.00;;;8.40
21210;BMP180;10762;42.206;25.326;2023-12-28T03:09:25;100684.00;;;8.40
21210;BMP180;10762;42.206;25.326;2023-12-28T03:11:51;100699.00;;;8.40
21210;BMP180;10762;42.206;25.326;2023-12-28T03:14:18;100690.00;;;8.30
21210;BMP180;10762;42.206;25.326;2023-12-28T03:16:44;100694.00;;;8.30
21210;BMP180;10762;42.206;25.326;2023-12-28T03:19:10;100699.00;;;8.30
21210;BMP180;10762;42.206;25.326;2023-12-28T03:21:39;100688.00;;;8.30
21210;BMP180;10762;42.206;25.326;2023-12-28T03:24:06;100690.00;;;8.30
21210;BMP180;10762;42.206;25.326;2023-12-28T03:26:32;100686.00;;;8.30
21210;BMP180;10762;42.206;25.326;2023-12-28T03:29:00;100688.00;;;8.20
21210;BMP180;10762;42.206;25.326;2023-12-28T03:31:27;100690.00;;;8.20
21210;BMP180;10762;42.206;25.326;2023-12-28T03:33:53;100685.00;;;8.20
21210;BMP180;10762;42.206;25.326;2023-12-28T03:36:19;100679.00;;;8.10
21210;BMP180;10762;42.206;25.326;2023-12-28T03:38:45;100689.00;;;8.10
21210;BMP180;10762;42.206;25.326;2023-12-28T03:41:18;100681.00;;;8.10
21210;BMP180;10762;42.206;25.326;2023-12-28T03:43:47;100684.00;;;8.00
21210;BMP180;10762;42.206;25.326;2023-12-28T03:46:14;100692.00;;;8.00
21210;BMP180;10762;42.206;25.326;2023-12-28T03:48:40;100701.00;;;8.00
21210;BMP180;10762;42.206;25.326;2023-12-28T03:51:06;100692.00;;;8.00
21210;BMP180;10762;42.206;25.326;2023-12-28T03:53:32;100697.00;;;8.00
21210;BMP180;10762;42.206;25.326;2023-12-28T03:55:58;100702.00;;;7.90
21210;BMP180;10762;42.206;25.326;2023-12-28T03:58:25;100709.00;;;7.90
21210;BMP180;10762;42.206;25.326;2023-12-28T04:00:51;100712.00;;;7.80
21210;BMP180;10762;42.206;25.326;2023-12-28T04:03:17;100702.00;;;7.80
21210;BMP180;10762;42.206;25.326;2023-12-28T04:05:44;100696.00;;;7.70
21210;BMP180;10762;42.206;25.326;2023-12-28T04:08:10;100704.00;;;7.70
21210;BMP180;10762;42.206;25.326;2023-12-28T04:10:36;100699.00;;;7.60
21210;BMP180;10762;42.206;25.326;2023-12-28T04:13:05;100702.00;;;7.50
21210;BMP180;10762;42.206;25.326;2023-12-28T04:15:31;100713.00;;;7.50
21210;BMP180;10762;42.206;25.326;2023-12-28T04:17:57;100712.00;;;7.40
21210;BMP180;10762;42.206;25.326;2023-12-28T04:20:23;100708.00;;;7.30
21210;BMP180;10762;42.206;25.326;2023-12-28T04:22:49;100706.00;;;7.30
21210;BMP180;10762;42.206;25.326;2023-12-28T04:25:15;100711.00;;;7.30
21210;BMP180;10762;42.206;25.326;2023-12-28T04:27:44;100710.00;;;7.30
21210;BMP180;10762;42.206;25.326;2023-12-28T04:30:13;100703.00;;;7.30
21210;BMP180;10762;42.206;25.326;2023-12-28T04:32:39;100706.00;;;7.30
21210;BMP180;10762;42.206;25.326;2023-12-28T04:35:05;100707.00;;;7.30
21210;BMP180;10762;42.206;25.326;2023-12-28T04:37:32;100705.00;;;7.30
21210;BMP180;10762;42.206;25.326;2023-12-28T04:39:58;100694.00;;;7.40
21210;BMP180;10762;42.206;25.326;2023-12-28T04:42:29;100708.00;;;7.40
21210;BMP180;10762;42.206;25.326;2023-12-28T04:44:55;100709.00;;;7.40
21210;BMP180;10762;42.206;25.326;2023-12-28T04:47:21;100720.00;;;7.40
21210;BMP180;10762;42.206;25.326;2023-12-28T04:49:47;100710.00;;;7.30
21210;BMP180;10762;42.206;25.326;2023-12-28T04:52:13;100703.00;;;7.40
21210;BMP180;10762;42.206;25.326;2023-12-28T04:54:42;100706.00;;;7.40
21210;BMP180;10762;42.206;25.326;2023-12-28T04:57:09;100702.00;;;7.40
21210;BMP180;10762;42.206;25.326;2023-12-28T04:59:38;100703.00;;;7.50
21210;BMP180;10762;42.206;25.326;2023-12-28T05:02:05;100701.00;;;7.50
21210;BMP180;10762;42.206;25.326;2023-12-28T05:04:31;100699.00;;;7.50
21210;BMP180;10762;42.206;25.326;2023-12-28T05:06:57;100704.00;;;7.60
21210;BMP180;10762;42.206;25.326;2023-12-28T05:09:23;100699.00;;;7.60
21210;BMP180;10762;42.206;25.326;2023-12-28T05:11:49;100696.00;;;7.50
21210;BMP180;10762;42.206;25.326;2023-12-28T05:14:15;100700.00;;;7.50
21210;BMP180;10762;42.206;25.326;2023-12-28T05:16:41;100704.00;;;7.50
21210;BMP180;10762;42.206;25.326;2023-12-28T05:19:07;100701.00;;;7.50
21210;BMP180;10762;42.206;25.326;2023-12-28T05:21:34;100714.00;;;7.50
21210;BMP180;10762;42.206;25.326;2023-12-28T05:24:00;100708.00;;;7.40
21210;BMP180;10762;42.206;25.326;2023-12-28T05:26:26;100703.00;;;7.40
21210;BMP180;10762;42.206;25.326;2023-12-28T05:28:53;100702.00;;;7.40
21210;BMP180;10762;42.206;25.326;2023-12-28T05:31:20;100706.00;;;7.40
21210;BMP180;10762;42.206;25.326;2023-12-28T05:33:46;100702.00;;;7.40
21210;BMP180;10762;42.206;25.326;2023-12-28T05:36:12;100700.00;;;7.40
21210;BMP180;10762;42.206;25.326;2023-12-28T05:38:38;100703.00;;;7.40
21210;BMP180;10762;42.206;25.326;2023-12-28T05:41:04;100710.00;;;7.50
21210;BMP180;10762;42.206;25.326;2023-12-28T05:43:30;100711.00;;;7.50
21210;BMP180;10762;42.206;25.326;2023-12-28T05:45:56;100709.00;;;7.50
21210;BMP180;10762;42.206;25.326;2023-12-28T05:48:23;100720.00;;;7.50
21210;BMP180;10762;42.206;25.326;2023-12-28T05:50:49;100710.00;;;7.50
21210;BMP180;10762;42.206;25.326;2023-12-28T05:53:15;100711.00;;;7.50
21210;BMP180;10762;42.206;25.326;2023-12-28T05:55:41;100714.00;;;7.50
21210;BMP180;10762;42.206;25.326;2023-12-28T05:58:07;100717.00;;;7.40
21210;BMP180;10762;42.206;25.326;2023-12-28T06:00:33;100713.00;;;7.40
21210;BMP180;10762;42.206;25.326;2023-12-28T06:03:01;100720.00;;;7.40
21210;BMP180;10762;42.206;25.326;2023-12-28T06:05:27;100724.00;;;7.30
21210;BMP180;10762;42.206;25.326;2023-12-28T06:07:53;100724.00;;;7.30
21210;BMP180;10762;42.206;25.326;2023-12-28T06:10:19;100720.00;;;7.20
21210;BMP180;10762;42.206;25.326;2023-12-28T06:12:45;100713.00;;;7.20
21210;BMP180;10762;42.206;25.326;2023-12-28T06:15:12;100725.00;;;7.20
21210;BMP180;10762;42.206;25.326;2023-12-28T06:17:38;100724.00;;;7.20
21210;BMP180;10762;42.206;25.326;2023-12-28T06:20:05;100731.00;;;7.20
21210;BMP180;10762;42.206;25.326;2023-12-28T06:22:32;100746.00;;;7.20
21210;BMP180;10762;42.206;25.326;2023-12-28T06:24:58;100740.00;;;7.30
21210;BMP180;10762;42.206;25.326;2023-12-28T06:27:24;100745.00;;;7.30
21210;BMP180;10762;42.206;25.326;2023-12-28T06:29:50;100743.00;;;7.40
21210;BMP180;10762;42.206;25.326;2023-12-28T06:32:16;100751.00;;;7.50
21210;BMP180;10762;42.206;25.326;2023-12-28T06:34:42;100743.00;;;7.60
21210;BMP180;10762;42.206;25.326;2023-12-28T06:37:09;100740.00;;;7.60
21210;BMP180;10762;42.206;25.326;2023-12-28T06:39:35;100735.00;;;7.70
21210;BMP180;10762;42.206;25.326;2023-12-28T06:42:01;100736.00;;;7.80
21210;BMP180;10762;42.206;25.326;2023-12-28T06:44:27;100745.00;;;7.80
21210;BMP180;10762;42.206;25.326;2023-12-28T06:46:53;100743.00;;;7.80
21210;BMP180;10762;42.206;25.326;2023-12-28T06:49:19;100744.00;;;7.90
21210;BMP180;10762;42.206;25.326;2023-12-28T06:51:45;100743.00;;;7.90
21210;BMP180;10762;42.206;25.326;2023-12-28T06:54:12;100744.00;;;8.00
21210;BMP180;10762;42.206;25.326;2023-12-28T06:56:39;100755.00;;;8.00
21210;BMP180;10762;42.206;25.326;2023-12-28T06:59:06;100760.00;;;8.10
21210;BMP180;10762;42.206;25.326;2023-12-28T07:01:32;100753.00;;;8.10
21210;BMP180;10762;42.206;25.326;2023-12-28T07:03:59;100767.00;;;8.20
21210;BMP180;10762;42.206;25.326;2023-12-28T07:06:26;100772.00;;;8.20
21210;BMP180;10762;42.206;25.326;2023-12-28T07:08:53;100774.00;;;8.30
21210;BMP180;10762;42.206;25.326;2023-12-28T07:11:19;100770.00;;;8.40
21210;BMP180;10762;42.206;25.326;2023-12-28T07:13:45;100766.00;;;8.40
21210;BMP180;10762;42.206;25.326;2023-12-28T07:16:12;100756.00;;;8.50
21210;BMP180;10762;42.206;25.326;2023-12-28T07:18:38;100768.00;;;8.60
21210;BMP180;10762;42.206;25.326;2023-12-28T07:21:05;100768.00;;;8.70
21210;BMP180;10762;42.206;25.326;2023-12-28T07:23:31;100767.00;;;8.80
21210;BMP180;10762;42.206;25.326;2023-12-28T07:25:58;100770.00;;;8.90
21210;BMP180;10762;42.206;25.326;2023-12-28T07:28:24;100764.00;;;9.00
21210;BMP180;10762;42.206;25.326;2023-12-28T07:30:50;100773.00;;;9.10
21210;BMP180;10762;42.206;25.326;2023-12-28T07:33:16;100766.00;;;9.10
21210;BMP180;10762;42.206;25.326;2023-12-28T07:35:43;100772.00;;;9.20
21210;BMP180;10762;42.206;25.326;2023-12-28T07:38:09;100764.00;;;9.40
21210;BMP180;10762;42.206;25.326;2023-12-28T07:40:35;100766.00;;;9.40
21210;BMP180;10762;42.206;25.326;2023-12-28T07:43:01;100770.00;;;9.60
21210;BMP180;10762;42.206;25.326;2023-12-28T07:45:28;100761.00;;;9.70
21210;BMP180;10762;42.206;25.326;2023-12-28T07:47:54;100765.00;;;9.80
21210;BMP180;10762;42.206;25.326;2023-12-28T07:50:20;100760.00;;;9.90
21210;BMP180;10762;42.206;25.326;2023-12-28T07:52:47;100757.00;;;10.00
21210;BMP180;10762;42.206;25.326;2023-12-28T07:55:13;100764.00;;;10.10
21210;BMP180;10762;42.206;25.326;2023-12-28T07:57:39;100757.00;;;10.20
21210;BMP180;10762;42.206;25.326;2023-12-28T08:00:07;100769.00;;;10.30
21210;BMP180;10762;42.206;25.326;2023-12-28T08:02:34;100765.00;;;10.40
21210;BMP180;10762;42.206;25.326;2023-12-28T08:05:00;100775.00;;;10.50
21210;BMP180;10762;42.206;25.326;2023-12-28T08:07:26;100775.00;;;10.60
21210;BMP180;10762;42.206;25.326;2023-12-28T08:09:52;100775.00;;;10.70
21210;BMP180;10762;42.206;25.326;2023-12-28T08:12:19;100775.00;;;10.80
21210;BMP180;10762;42.206;25.326;2023-12-28T08:14:46;100768.00;;;10.90
21210;BMP180;10762;42.206;25.326;2023-12-28T08:17:13;100765.00;;;11.10
21210;BMP180;10762;42.206;25.326;2023-12-28T08:19:39;100767.00;;;11.20
21210;BMP180;10762;42.206;25.326;2023-12-28T08:22:05;100769.00;;;11.40
21210;BMP180;10762;42.206;25.326;2023-12-28T08:24:31;100765.00;;;11.50
21210;BMP180;10762;42.206;25.326;2023-12-28T08:26:58;100758.00;;;11.60
21210;BMP180;10762;42.206;25.326;2023-12-28T08:29:26;100761.00;;;11.80
21210;BMP180;10762;42.206;25.326;2023-12-28T08:31:52;100759.00;;;11.90
21210;BMP180;10762;42.206;25.326;2023-12-28T08:34:18;100763.00;;;12.00
21210;BMP180;10762;42.206;25.326;2023-12-28T08:36:44;100764.00;;;12.10
21210;BMP180;10762;42.206;25.326;2023-12-28T08:39:10;100755.00;;;12.20
21210;BMP180;10762;42.206;25.326;2023-12-28T08:41:36;100746.00;;;12.30
21210;BMP180;10762;42.206;25.326;2023-12-28T08:44:03;100747.00;;;12.40
21210;BMP180;10762;42.206;25.326;2023-12-28T08:46:29;100741.00;;;12.50
21210;BMP180;10762;42.206;25.326;2023-12-28T08:48:55;100740.00;;;12.60
21210;BMP180;10762;42.206;25.326;2023-12-28T08:51:24;100735.00;;;12.70
21210;BMP180;10762;42.206;25.326;2023-12-28T08:53:50;100729.00;;;12.80
21210;BMP180;10762;42.206;25.326;2023-12-28T08:56:17;100735.00;;;12.90
21210;BMP180;10762;42.206;25.326;2023-12-28T08:58:44;100727.00;;;12.90
21210;BMP180;10762;42.206;25.326;2023-12-28T09:01:23;100725.00;;;13.00
21210;BMP180;10762;42.206;25.326;2023-12-28T09:03:49;100719.00;;;13.10
21210;BMP180;10762;42.206;25.326;2023-12-28T09:06:16;100713.00;;;13.20
21210;BMP180;10762;42.206;25.326;2023-12-28T09:08:42;100712.00;;;13.30
21210;BMP180;10762;42.206;25.326;2023-12-28T09:11:09;100704.00;;;13.40
21210;BMP180;10762;42.206;25.326;2023-12-28T09:13:35;100706.00;;;13.50
21210;BMP180;10762;42.206;25.326;2023-12-28T09:16:02;100703.00;;;13.60
21210;BMP180;10762;42.206;25.326;2023-12-28T09:18:28;100702.00;;;13.60
21210;BMP180;10762;42.206;25.326;2023-12-28T09:20:54;100699.00;;;13.80
21210;BMP180;10762;42.206;25.326;2023-12-28T09:23:21;100697.00;;;13.80
21210;BMP180;10762;42.206;25.326;2023-12-28T09:25:47;100687.00;;;13.90
21210;BMP180;10762;42.206;25.326;2023-12-28T09:28:15;100677.00;;;14.00
21210;BMP180;10762;42.206;25.326;2023-12-28T09:30:41;100674.00;;;14.10
21210;BMP180;10762;42.206;25.326;2023-12-28T09:33:07;100679.00;;;14.20
21210;BMP180;10762;42.206;25.326;2023-12-28T09:35:33;100683.00;;;14.20
21210;BMP180;10762;42.206;25.326;2023-12-28T09:37:59;100668.00;;;14.30
21210;BMP180;10762;42.206;25.326;2023-12-28T09:40:25;100668.00;;;14.40
21210;BMP180;10762;42.206;25.326;2023-12-28T09:42:53;100659.00;;;14.50
21210;BMP180;10762;42.206;25.326;2023-12-28T09:45:22;100650.00;;;14.60
21210;BMP180;10762;42.206;25.326;2023-12-28T09:47:48;100651.00;;;14.70
21210;BMP180;10762;42.206;25.326;2023-12-28T09:50:17;100647.00;;;14.80
21210;BMP180;10762;42.206;25.326;2023-12-28T09:52:43;100638.00;;;14.80
21210;BMP180;10762;42.206;25.326;2023-12-28T09:55:09;100642.00;;;14.90
21210;BMP180;10762;42.206;25.326;2023-12-28T09:57:36;100627.00;;;15.00
21210;BMP180;10762;42.206;25.326;2023-12-28T10:00:03;100633.00;;;15.00
21210;BMP180;10762;42.206;25.326;2023-12-28T10:02:30;100623.00;;;15.10
21210;BMP180;10762;42.206;25.326;2023-12-28T10:04:56;100610.00;;;15.10
21210;BMP180;10762;42.206;25.326;2023-12-28T10:07:22;100610.00;;;15.20
21210;BMP180;10762;42.206;25.326;2023-12-28T10:09:48;100607.00;;;15.20
21210;BMP180;10762;42.206;25.326;2023-12-28T10:12:14;100610.00;;;15.30
21210;BMP180;10762;42.206;25.326;2023-12-28T10:14:41;100596.00;;;15.40
21210;BMP180;10762;42.206;25.326;2023-12-28T10:17:07;100597.00;;;15.40
21210;BMP180;10762;42.206;25.326;2023-12-28T10:19:36;100597.00;;;15.50
21210;BMP180;10762;42.206;25.326;2023-12-28T10:22:02;100598.00;;;15.60
21210;BMP180;10762;42.206;25.326;2023-12-28T10:24:28;100590.00;;;15.60
21210;BMP180;10762;42.206;25.326;2023-12-28T10:26:54;100588.00;;;15.70
21210;BMP180;10762;42.206;25.326;2023-12-28T10:29:20;100582.00;;;15.80
21210;BMP180;10762;42.206;25.326;2023-12-28T10:31:47;100577.00;;;15.90
21210;BMP180;10762;42.206;25.326;2023-12-28T10:34:16;100571.00;;;16.00
21210;BMP180;10762;42.206;25.326;2023-12-28T10:36:42;100566.00;;;16.00
21210;BMP180;10762;42.206;25.326;2023-12-28T10:39:09;100565.00;;;16.10
21210;BMP180;10762;42.206;25.326;2023-12-28T10:41:36;100564.00;;;16.10
21210;BMP180;10762;42.206;25.326;2023-12-28T10:44:04;100548.00;;;16.20
21210;BMP180;10762;42.206;25.326;2023-12-28T10:46:31;100547.00;;;16.30
21210;BMP180;10762;42.206;25.326;2023-12-28T10:48:59;100548.00;;;16.40
21210;BMP180;10762;42.206;25.326;2023-12-28T10:51:25;100541.00;;;16.40
21210;BMP180;10762;42.206;25.326;2023-12-28T10:56:35;100532.00;;;16.50
21210;BMP180;10762;42.206;25.326;2023-12-28T10:59:09;100522.00;;;16.60
21210;BMP180;10762;42.206;25.326;2023-12-28T11:01:39;100515.00;;;16.60
21210;BMP180;10762;42.206;25.326;2023-12-28T11:06:35;100508.00;;;16.60
21210;BMP180;10762;42.206;25.326;2023-12-28T11:09:02;100505.00;;;16.60
21210;BMP180;10762;42.206;25.326;2023-12-28T11:11:29;100497.00;;;16.60
21210;BMP180;10762;42.206;25.326;2023-12-28T11:13:55;100493.00;;;16.70
21210;BMP180;10762;42.206;25.326;2023-12-28T11:16:22;100492.00;;;16.70
21210;BMP180;10762;42.206;25.326;2023-12-28T11:18:49;100494.00;;;16.80
21210;BMP180;10762;42.206;25.326;2023-12-28T11:21:16;100483.00;;;16.80
21210;BMP180;10762;42.206;25.326;2023-12-28T11:23:43;100478.00;;;16.80
21210;BMP180;10762;42.206;25.326;2023-12-28T11:26:20;100480.00;;;16.80
21210;BMP180;10762;42.206;25.326;2023-12-28T11:28:46;100478.00;;;16.80
21210;BMP180;10762;42.206;25.326;2023-12-28T11:31:16;100472.00;;;16.90
21210;BMP180;10762;42.206;25.326;2023-12-28T11:33:50;100481.00;;;16.80
21210;BMP180;10762;42.206;25.326;2023-12-28T11:36:19;100475.00;;;16.80
21210;BMP180;10762;42.206;25.326;2023-12-28T11:38:47;100470.00;;;16.70
21210;BMP180;10762;42.206;25.326;2023-12-28T11:41:16;100480.00;;;16.60
21210;BMP180;10762;42.206;25.326;2023-12-28T11:43:42;100471.00;;;16.60
21210;BMP180;10762;42.206;25.326;2023-12-28T11:46:08;100459.00;;;16.50
21210;BMP180;10762;42.206;25.326;2023-12-28T11:48:35;100452.00;;;16.50
21210;BMP180;10762;42.206;25.326;2023-12-28T11:51:01;100447.00;;;16.60
21210;BMP180;10762;42.206;25.326;2023-12-28T11:53:28;100452.00;;;16.50
21210;BMP180;10762;42.206;25.326;2023-12-28T11:56:00;100454.00;;;16.50
21210;BMP180;10762;42.206;25.326;2023-12-28T11:58:28;100457.00;;;16.50
21210;BMP180;10762;42.206;25.326;2023-12-28T12:00:54;100450.00;;;16.50
21210;BMP180;10762;42.206;25.326;2023-12-28T12:03:20;100436.00;;;16.60
21210;BMP180;10762;42.206;25.326;2023-12-28T12:05:46;100438.00;;;16.60
21210;BMP180;10762;42.206;25.326;2023-12-28T12:08:12;100445.00;;;16.50
21210;BMP180;10762;42.206;25.326;2023-12-28T12:10:40;100436.00;;;16.50
21210;BMP180;10762;42.206;25.326;2023-12-28T12:13:07;100438.00;;;16.40
21210;BMP180;10762;42.206;25.326;2023-12-28T12:15:33;100430.00;;;16.40
21210;BMP180;10762;42.206;25.326;2023-12-28T12:18:00;100420.00;;;16.40
21210;BMP180;10762;42.206;25.326;2023-12-28T12:20:26;100427.00;;;16.50
21210;BMP180;10762;42.206;25.326;2023-12-28T12:22:58;100414.00;;;16.50
21210;BMP180;10762;42.206;25.326;2023-12-28T12:25:25;100414.00;;;16.50
21210;BMP180;10762;42.206;25.326;2023-12-28T12:27:51;100417.00;;;16.40
21210;BMP180;10762;42.206;25.326;2023-12-28T12:30:18;100422.00;;;16.40
21210;BMP180;10762;42.206;25.326;2023-12-28T12:32:44;100419.00;;;16.40
21210;BMP180;10762;42.206;25.326;2023-12-28T12:35:10;100419.00;;;16.30
21210;BMP180;10762;42.206;25.326;2023-12-28T12:37:37;100416.00;;;16.30
21210;BMP180;10762;42.206;25.326;2023-12-28T12:40:03;100411.00;;;16.20
21210;BMP180;10762;42.206;25.326;2023-12-28T12:42:32;100418.00;;;16.20
21210;BMP180;10762;42.206;25.326;2023-12-28T12:44:58;100415.00;;;16.30
21210;BMP180;10762;42.206;25.326;2023-12-28T12:47:24;100407.00;;;16.30
21210;BMP180;10762;42.206;25.326;2023-12-28T12:49:55;100419.00;;;16.30
21210;BMP180;10762;42.206;25.326;2023-12-28T12:52:21;100424.00;;;16.40
21210;BMP180;10762;42.206;25.326;2023-12-28T12:54:53;100412.00;;;16.40
21210;BMP180;10762;42.206;25.326;2023-12-28T12:57:19;100415.00;;;16.40
21210;BMP180;10762;42.206;25.326;2023-12-28T12:59:45;100414.00;;;16.40
21210;BMP180;10762;42.206;25.326;2023-12-28T13:02:12;100406.00;;;16.30
21210;BMP180;10762;42.206;25.326;2023-12-28T13:04:39;100407.00;;;16.30
21210;BMP180;10762;42.206;25.326;2023-12-28T13:07:05;100415.00;;;16.30
21210;BMP180;10762;42.206;25.326;2023-12-28T13:09:31;100408.00;;;16.40
21210;BMP180;10762;42.206;25.326;2023-12-28T13:11:57;100407.00;;;16.40
21210;BMP180;10762;42.206;25.326;2023-12-28T13:14:23;100407.00;;;16.30
21210;BMP180;10762;42.206;25.326;2023-12-28T13:16:49;100398.00;;;16.30
21210;BMP180;10762;42.206;25.326;2023-12-28T13:19:20;100402.00;;;16.30
21210;BMP180;10762;42.206;25.326;2023-12-28T13:21:46;100401.00;;;16.30
21210;BMP180;10762;42.206;25.326;2023-12-28T13:24:12;100399.00;;;16.30
21210;BMP180;10762;42.206;25.326;2023-12-28T13:26:38;100397.00;;;16.30
21210;BMP180;10762;42.206;25.326;2023-12-28T13:29:05;100399.00;;;16.30
21210;BMP180;10762;42.206;25.326;2023-12-28T13:31:31;100400.00;;;16.30
21210;BMP180;10762;42.206;25.326;2023-12-28T13:33:57;100402.00;;;16.30
21210;BMP180;10762;42.206;25.326;2023-12-28T13:36:24;100398.00;;;16.30
21210;BMP180;10762;42.206;25.326;2023-12-28T13:38:52;100385.00;;;16.20
21210;BMP180;10762;42.206;25.326;2023-12-28T13:41:18;100381.00;;;16.20
21210;BMP180;10762;42.206;25.326;2023-12-28T13:43:44;100384.00;;;16.20
21210;BMP180;10762;42.206;25.326;2023-12-28T13:46:11;100387.00;;;16.20
21210;BMP180;10762;42.206;25.326;2023-12-28T13:48:37;100379.00;;;16.20
21210;BMP180;10762;42.206;25.326;2023-12-28T13:51:05;100381.00;;;16.20
21210;BMP180;10762;42.206;25.326;2023-12-28T13:53:32;100371.00;;;16.20